createdAt,value
2022-11-05T00:00:51.232Z,1005.92
2022-11-05T00:01:51.212Z,1005.95
2022-11-05T00:02:51.095Z,1005.92
2022-11-05T00:03:51.174Z,1005.94
2022-11-05T00:04:50.979Z,1005.99
2022-11-05T00:05:51.006Z,1005.97
2022-11-05T00:06:50.869Z,1006.02
2022-11-05T00:07:50.805Z,1006.00
2022-11-05T00:08:50.705Z,1006.09
2022-11-05T00:09:50.656Z,1006.05
2022-11-05T00:10:50.568Z,1005.99
2022-11-05T00:11:50.526Z,1006.06
2022-11-05T00:12:50.447Z,1006.09
2022-11-05T00:13:50.388Z,1006.06
2022-11-05T00:14:50.334Z,1006.12
2022-11-05T00:15:50.233Z,1006.10
2022-11-05T00:16:50.171Z,1006.15
2022-11-05T00:17:50.129Z,1006.14
2022-11-05T00:18:50.074Z,1006.18
2022-11-05T00:19:50.043Z,1006.15
2022-11-05T00:20:49.929Z,1006.20
2022-11-05T00:21:49.878Z,1006.15
2022-11-05T00:22:49.802Z,1006.17
2022-11-05T00:23:49.710Z,1006.15
2022-11-05T00:24:49.663Z,1006.16
2022-11-05T00:25:49.584Z,1006.21
2022-11-05T00:26:49.541Z,1006.22
2022-11-05T00:27:49.547Z,1006.20
2022-11-05T00:28:49.395Z,1006.18
2022-11-05T00:29:49.309Z,1006.22
2022-11-05T00:30:49.267Z,1006.18
2022-11-05T00:31:49.278Z,1006.19
2022-11-05T00:32:49.122Z,1006.27
2022-11-05T00:33:49.072Z,1006.23
2022-11-05T00:34:48.981Z,1006.23
2022-11-05T00:35:48.948Z,1006.25
2022-11-05T00:36:48.847Z,1006.28
2022-11-05T00:37:50.411Z,1006.26
2022-11-05T00:38:48.732Z,1006.30
2022-11-05T00:39:48.667Z,1006.29
2022-11-05T00:40:48.651Z,1006.26
2022-11-05T00:41:48.559Z,1006.30
2022-11-05T00:42:48.483Z,1006.31
2022-11-05T00:43:48.399Z,1006.32
2022-11-05T00:44:48.323Z,1006.32
2022-11-05T00:45:48.270Z,1006.34
2022-11-05T00:46:48.198Z,1006.33
2022-11-05T00:47:48.176Z,1006.35
2022-11-05T00:48:48.066Z,1006.36
2022-11-05T00:49:48.022Z,1006.42
2022-11-05T00:50:47.956Z,1006.40
2022-11-05T00:51:47.863Z,1006.44
2022-11-05T00:52:47.894Z,1006.34
2022-11-05T00:53:47.805Z,1006.39
2022-11-05T00:54:47.676Z,1006.39
2022-11-05T00:55:47.618Z,1006.42
2022-11-05T00:56:47.559Z,1006.40
2022-11-05T00:57:47.493Z,1006.39
2022-11-05T00:58:47.431Z,1006.41
2022-11-05T00:59:47.626Z,1006.44
2022-11-05T01:00:47.275Z,1006.45
2022-11-05T01:01:47.358Z,1006.43
2022-11-05T01:02:47.209Z,1006.45
2022-11-05T01:03:51.430Z,1006.47
2022-11-05T01:04:47.018Z,1006.52
2022-11-05T01:05:46.979Z,1006.47
2022-11-05T01:06:46.872Z,1006.53
2022-11-05T01:07:46.831Z,1006.48
2022-11-05T01:08:46.779Z,1006.50
2022-11-05T01:09:46.687Z,1006.51
2022-11-05T01:10:46.633Z,1006.49
2022-11-05T01:11:46.541Z,1006.60
2022-11-05T01:12:46.493Z,1006.55
2022-11-05T01:13:46.431Z,1006.58
2022-11-05T01:14:46.347Z,1006.66
2022-11-05T01:15:46.338Z,1006.62
2022-11-05T01:16:46.245Z,1006.63
2022-11-05T01:17:46.166Z,1006.65
2022-11-05T01:18:46.115Z,1006.65
2022-11-05T01:19:46.022Z,1006.67
2022-11-05T01:20:45.954Z,1006.63
2022-11-05T01:21:45.893Z,1006.70
2022-11-05T01:22:45.850Z,1006.75
2022-11-05T01:23:45.772Z,1006.69
2022-11-05T01:24:45.717Z,1006.68
2022-11-05T01:25:45.637Z,1006.69
2022-11-05T01:26:45.565Z,1006.70
2022-11-05T01:27:45.517Z,1006.73
2022-11-05T01:28:45.507Z,1006.69
2022-11-05T01:29:45.376Z,1006.78
2022-11-05T01:30:45.306Z,1006.71
2022-11-05T01:31:45.238Z,1006.73
2022-11-05T01:32:45.198Z,1006.74
2022-11-05T01:33:45.101Z,1006.73
2022-11-05T01:34:45.035Z,1006.78
2022-11-05T01:35:44.972Z,1006.76
2022-11-05T01:36:44.907Z,1006.74
2022-11-05T01:37:44.851Z,1006.76
2022-11-05T01:38:44.771Z,1006.75
2022-11-05T01:39:44.711Z,1006.75
2022-11-05T01:40:44.657Z,1006.75
2022-11-05T01:41:44.597Z,1006.79
2022-11-05T01:42:44.513Z,1006.83
2022-11-05T01:43:44.441Z,1006.85
2022-11-05T01:44:44.419Z,1006.79
2022-11-05T01:45:44.319Z,1006.82
2022-11-05T01:46:44.251Z,1006.83
2022-11-05T01:47:44.176Z,1006.81
2022-11-05T01:48:44.119Z,1006.81
2022-11-05T01:49:44.058Z,1006.83
2022-11-05T01:50:43.982Z,1006.83
2022-11-05T01:51:43.962Z,1006.82
2022-11-05T01:52:43.866Z,1006.83
2022-11-05T01:53:43.787Z,1006.76
2022-11-05T01:54:43.723Z,1006.80
2022-11-05T01:55:43.661Z,1006.75
2022-11-05T01:56:43.588Z,1006.80
2022-11-05T01:57:43.544Z,1006.81
2022-11-05T01:58:43.464Z,1006.87
2022-11-05T01:59:43.406Z,1006.84
2022-11-05T02:00:43.406Z,1006.87
2022-11-05T02:01:43.451Z,1006.87
2022-11-05T02:02:43.341Z,1006.92
2022-11-05T02:03:43.155Z,1006.93
2022-11-05T02:04:43.070Z,1006.93
2022-11-05T02:05:43.006Z,1006.96
2022-11-05T02:06:42.938Z,1006.96
2022-11-05T02:07:42.865Z,1007.00
2022-11-05T02:08:42.805Z,1007.05
2022-11-05T02:09:42.741Z,1007.01
2022-11-05T02:10:42.695Z,1006.98
2022-11-05T02:11:42.659Z,1007.01
2022-11-05T02:12:42.594Z,1007.03
2022-11-05T02:13:42.475Z,1007.04
2022-11-05T02:14:42.423Z,1007.05
2022-11-05T02:15:42.369Z,1007.13
2022-11-05T02:16:42.277Z,1007.12
2022-11-05T02:17:42.219Z,1007.15
2022-11-05T02:18:42.198Z,1007.17
2022-11-05T02:19:42.105Z,1007.19
2022-11-05T02:20:42.057Z,1007.23
2022-11-05T02:21:41.957Z,1007.20
2022-11-05T02:22:41.911Z,1007.21
2022-11-05T02:23:41.829Z,1007.24
2022-11-05T02:24:41.782Z,1007.25
2022-11-05T02:25:41.680Z,1007.27
2022-11-05T02:26:41.632Z,1007.26
2022-11-05T02:27:41.647Z,1007.29
2022-11-05T02:28:41.485Z,1007.23
2022-11-05T02:29:41.425Z,1007.23
2022-11-05T02:30:41.364Z,1007.23
2022-11-05T02:31:41.287Z,1007.22
2022-11-05T02:32:41.242Z,1007.24
2022-11-05T02:33:41.154Z,1007.28
2022-11-05T02:34:41.115Z,1007.32
2022-11-05T02:35:41.028Z,1007.34
2022-11-05T02:36:40.970Z,1007.34
2022-11-05T02:37:40.919Z,1007.35
2022-11-05T02:38:40.847Z,1007.37
2022-11-05T02:39:40.781Z,1007.33
2022-11-05T02:40:40.726Z,1007.34
2022-11-05T02:41:40.650Z,1007.38
2022-11-05T02:42:40.598Z,1007.39
2022-11-05T02:43:40.492Z,1007.36
2022-11-05T02:44:40.444Z,1007.39
2022-11-05T02:45:40.369Z,1007.38
2022-11-05T02:46:40.316Z,1007.37
2022-11-05T02:47:40.256Z,1007.38
2022-11-05T02:48:40.206Z,1007.40
2022-11-05T02:49:40.146Z,1007.40
2022-11-05T02:50:40.048Z,1007.40
2022-11-05T02:51:39.972Z,1007.39
2022-11-05T02:52:39.940Z,1007.44
2022-11-05T02:53:39.864Z,1007.47
2022-11-05T02:54:39.787Z,1007.42
2022-11-05T02:55:39.727Z,1007.47
2022-11-05T02:56:39.637Z,1007.44
2022-11-05T02:57:39.589Z,1007.50
2022-11-05T02:58:39.516Z,1007.47
2022-11-05T02:59:39.504Z,1007.45
2022-11-05T03:00:39.391Z,1007.49
2022-11-05T03:01:39.429Z,1007.48
2022-11-05T03:02:39.356Z,1007.49
2022-11-05T03:03:39.176Z,1007.53
2022-11-05T03:04:39.124Z,1007.55
2022-11-05T03:05:39.048Z,1007.59
2022-11-05T03:06:38.978Z,1007.60
2022-11-05T03:07:38.915Z,1007.61
2022-11-05T03:08:38.856Z,1007.63
2022-11-05T03:09:38.782Z,1007.63
2022-11-05T03:10:38.717Z,1007.63
2022-11-05T03:11:38.660Z,1007.65
2022-11-05T03:12:38.578Z,1007.67
2022-11-05T03:13:38.516Z,1007.69
2022-11-05T03:14:38.503Z,1007.68
2022-11-05T03:15:38.393Z,1007.70
2022-11-05T03:16:38.314Z,1007.72
2022-11-05T03:17:38.278Z,1007.74
2022-11-05T03:18:38.212Z,1007.72
2022-11-05T03:19:38.129Z,1007.79
2022-11-05T03:20:38.048Z,1007.79
2022-11-05T03:21:37.983Z,1007.78
2022-11-05T03:22:37.913Z,1007.79
2022-11-05T03:23:37.845Z,1007.79
2022-11-05T03:24:37.787Z,1007.82
2022-11-05T03:25:37.723Z,1007.78
2022-11-05T03:26:37.669Z,1007.76
2022-11-05T03:27:37.597Z,1007.79
2022-11-05T03:28:37.543Z,1007.79
2022-11-05T03:29:37.467Z,1007.84
2022-11-05T03:30:37.389Z,1007.82
2022-11-05T03:31:37.606Z,1007.83
2022-11-05T03:32:37.365Z,1007.85
2022-11-05T03:33:37.187Z,1007.90
2022-11-05T03:34:37.136Z,1007.88
2022-11-05T03:35:37.055Z,1007.91
2022-11-05T03:36:36.996Z,1007.92
2022-11-05T03:37:36.923Z,1007.94
2022-11-05T03:38:36.881Z,1007.95
2022-11-05T03:39:36.798Z,1007.94
2022-11-05T03:40:36.728Z,1007.95
2022-11-05T03:41:36.676Z,1007.90
2022-11-05T03:42:36.599Z,1008.02
2022-11-05T03:43:36.592Z,1008.03
2022-11-05T03:44:36.460Z,1007.96
2022-11-05T03:45:36.398Z,1008.04
2022-11-05T03:46:36.355Z,1008.06
2022-11-05T03:47:36.289Z,1008.04
2022-11-05T03:48:36.270Z,1008.06
2022-11-05T03:49:36.249Z,1008.08
2022-11-05T03:50:41.070Z,1008.07
2022-11-05T03:51:36.012Z,1008.05
2022-11-05T03:52:35.929Z,1008.12
2022-11-05T03:53:35.880Z,1008.12
2022-11-05T03:54:35.829Z,1008.15
2022-11-05T03:55:35.760Z,1008.18
2022-11-05T03:56:35.668Z,1008.22
2022-11-05T03:57:35.600Z,1008.15
2022-11-05T03:58:35.544Z,1008.15
2022-11-05T03:59:35.476Z,1008.14
2022-11-05T04:00:35.432Z,1008.16
2022-11-05T04:01:35.500Z,1008.20
2022-11-05T04:02:35.436Z,1008.18
2022-11-05T04:03:35.213Z,1008.19
2022-11-05T04:04:35.151Z,1008.25
2022-11-05T04:05:35.070Z,1008.30
2022-11-05T04:06:35.012Z,1008.28
2022-11-05T04:07:34.941Z,1008.33
2022-11-05T04:08:34.873Z,1008.35
2022-11-05T04:09:34.866Z,1008.35
2022-11-05T04:10:34.755Z,1008.36
2022-11-05T04:11:34.679Z,1008.35
2022-11-05T04:12:34.607Z,1008.35
2022-11-05T04:13:34.551Z,1008.36
2022-11-05T04:14:34.472Z,1008.37
2022-11-05T04:15:34.436Z,1008.36
2022-11-05T04:16:34.341Z,1008.35
2022-11-05T04:17:34.295Z,1008.41
2022-11-05T04:18:34.214Z,1008.35
2022-11-05T04:19:34.229Z,1008.38
2022-11-05T04:20:34.074Z,1008.38
2022-11-05T04:21:34.011Z,1008.39
2022-11-05T04:22:33.947Z,1008.43
2022-11-05T04:23:33.882Z,1008.44
2022-11-05T04:24:33.822Z,1008.47
2022-11-05T04:25:33.756Z,1008.50
2022-11-05T04:26:33.674Z,1008.55
2022-11-05T04:27:33.617Z,1008.55
2022-11-05T04:28:33.560Z,1008.54
2022-11-05T04:29:33.486Z,1008.57
2022-11-05T04:30:33.428Z,1008.54
2022-11-05T04:31:33.350Z,1008.59
2022-11-05T04:32:33.282Z,1008.63
2022-11-05T04:33:33.228Z,1008.67
2022-11-05T04:34:33.149Z,1008.67
2022-11-05T04:35:33.097Z,1008.66
2022-11-05T04:36:33.019Z,1008.64
2022-11-05T04:37:32.990Z,1008.61
2022-11-05T04:38:32.913Z,1008.64
2022-11-05T04:39:32.815Z,1008.63
2022-11-05T04:40:32.760Z,1008.68
2022-11-05T04:41:32.713Z,1008.66
2022-11-05T04:42:32.618Z,1008.65
2022-11-05T04:43:32.552Z,1008.67
2022-11-05T04:44:32.490Z,1008.69
2022-11-05T04:45:32.424Z,1008.67
2022-11-05T04:46:32.357Z,1008.67
2022-11-05T04:47:32.287Z,1008.72
2022-11-05T04:48:32.234Z,1008.73
2022-11-05T04:49:32.166Z,1008.75
2022-11-05T04:50:32.087Z,1008.72
2022-11-05T04:51:32.122Z,1008.72
2022-11-05T04:52:31.975Z,1008.68
2022-11-05T04:53:31.939Z,1008.73
2022-11-05T04:54:31.846Z,1008.73
2022-11-05T04:55:31.751Z,1008.74
2022-11-05T04:56:31.744Z,1008.73
2022-11-05T04:57:31.634Z,1008.75
2022-11-05T04:58:31.569Z,1008.75
2022-11-05T04:59:31.532Z,1008.80
2022-11-05T05:00:31.774Z,1008.75
2022-11-05T05:01:31.507Z,1008.76
2022-11-05T05:02:31.320Z,1008.77
2022-11-05T05:03:31.303Z,1008.78
2022-11-05T05:04:31.187Z,1008.72
2022-11-05T05:05:31.098Z,1008.77
2022-11-05T05:06:31.035Z,1008.77
2022-11-05T05:07:31.049Z,1008.72
2022-11-05T05:08:30.907Z,1008.71
2022-11-05T05:09:30.833Z,1008.73
2022-11-05T05:10:30.772Z,1008.73
2022-11-05T05:11:30.713Z,1008.77
2022-11-05T05:12:30.635Z,1008.75
2022-11-05T05:13:30.561Z,1008.76
2022-11-05T05:14:30.506Z,1008.75
2022-11-05T05:15:30.438Z,1008.77
2022-11-05T05:16:30.371Z,1008.73
2022-11-05T05:17:30.310Z,1008.81
2022-11-05T05:18:30.226Z,1008.80
2022-11-05T05:19:30.169Z,1008.79
2022-11-05T05:20:30.104Z,1008.80
2022-11-05T05:21:30.039Z,1008.79
2022-11-05T05:22:29.984Z,1008.85
2022-11-05T05:23:29.917Z,1008.85
2022-11-05T05:24:29.829Z,1008.88
2022-11-05T05:25:29.763Z,1008.88
2022-11-05T05:26:29.707Z,1008.86
2022-11-05T05:27:29.624Z,1008.85
2022-11-05T05:28:29.561Z,1008.85
2022-11-05T05:29:29.514Z,1008.91
2022-11-05T05:30:29.432Z,1008.93
2022-11-05T05:31:29.392Z,1008.94
2022-11-05T05:32:29.308Z,1008.92
2022-11-05T05:33:29.229Z,1008.93
2022-11-05T05:34:29.162Z,1008.92
2022-11-05T05:35:29.126Z,1008.96
2022-11-05T05:36:29.042Z,1008.97
2022-11-05T05:37:28.973Z,1008.96
2022-11-05T05:38:28.896Z,1009.00
2022-11-05T05:39:28.835Z,1009.00
2022-11-05T05:40:28.786Z,1009.00
2022-11-05T05:41:28.709Z,1009.06
2022-11-05T05:42:28.627Z,1009.06
2022-11-05T05:43:28.610Z,1009.09
2022-11-05T05:44:28.513Z,1009.07
2022-11-05T05:45:28.441Z,1009.10
2022-11-05T05:46:28.370Z,1009.06
2022-11-05T05:47:28.314Z,1009.10
2022-11-05T05:48:28.336Z,1009.10
2022-11-05T05:49:28.176Z,1009.11
2022-11-05T05:50:28.106Z,1009.14
2022-11-05T05:51:28.035Z,1009.21
2022-11-05T05:52:27.971Z,1009.20
2022-11-05T05:53:27.896Z,1009.23
2022-11-05T05:54:32.668Z,1009.22
2022-11-05T05:55:27.763Z,1009.25
2022-11-05T05:56:27.709Z,1009.25
2022-11-05T05:57:27.629Z,1009.28
2022-11-05T05:58:27.565Z,1009.27
2022-11-05T05:59:27.499Z,1009.26
2022-11-05T06:00:27.445Z,1009.28
2022-11-05T06:01:27.500Z,1009.25
2022-11-05T06:02:27.464Z,1009.27
2022-11-05T06:03:27.234Z,1009.31
2022-11-05T06:04:27.171Z,1009.29
2022-11-05T06:05:27.107Z,1009.37
2022-11-05T06:06:27.039Z,1009.35
2022-11-05T06:07:26.977Z,1009.40
2022-11-05T06:08:26.938Z,1009.43
2022-11-05T06:09:26.838Z,1009.45
2022-11-05T06:10:26.937Z,1009.47
2022-11-05T06:11:26.695Z,1009.43
2022-11-05T06:12:26.639Z,1009.49
2022-11-05T06:13:26.569Z,1009.58
2022-11-05T06:14:26.508Z,1009.55
2022-11-05T06:15:28.474Z,1009.56
2022-11-05T06:16:26.358Z,1009.56
2022-11-05T06:17:26.348Z,1009.61
2022-11-05T06:18:26.247Z,1009.63
2022-11-05T06:19:26.167Z,1009.63
2022-11-05T06:20:26.115Z,1009.68
2022-11-05T06:21:26.032Z,1009.71
2022-11-05T06:22:25.990Z,1009.71
2022-11-05T06:23:25.893Z,1009.70
2022-11-05T06:24:25.826Z,1009.70
2022-11-05T06:25:25.778Z,1009.72
2022-11-05T06:26:25.708Z,1009.77
2022-11-05T06:27:25.630Z,1009.76
2022-11-05T06:28:25.558Z,1009.75
2022-11-05T06:29:25.492Z,1009.80
2022-11-05T06:30:25.437Z,1009.78
2022-11-05T06:31:25.374Z,1009.84
2022-11-05T06:32:25.297Z,1009.85
2022-11-05T06:33:25.230Z,1009.82
2022-11-05T06:34:25.178Z,1009.81
2022-11-05T06:35:25.093Z,1009.86
2022-11-05T06:36:25.033Z,1009.87
2022-11-05T06:37:24.991Z,1009.92
2022-11-05T06:38:24.900Z,1009.93
2022-11-05T06:39:24.834Z,1009.96
2022-11-05T06:40:24.760Z,1010.00
2022-11-05T06:41:24.701Z,1009.99
2022-11-05T06:42:24.626Z,1010.04
2022-11-05T06:43:24.585Z,1010.03
2022-11-05T06:44:24.502Z,1010.03
2022-11-05T06:45:24.460Z,1010.14
2022-11-05T06:46:24.360Z,1010.14
2022-11-05T06:47:24.300Z,1010.09
2022-11-05T06:48:24.266Z,1010.13
2022-11-05T06:49:24.164Z,1010.16
2022-11-05T06:50:24.113Z,1010.17
2022-11-05T06:51:24.038Z,1010.15
2022-11-05T06:52:23.964Z,1010.17
2022-11-05T06:53:23.906Z,1010.16
2022-11-05T06:54:23.845Z,1010.16
2022-11-05T06:55:23.768Z,1010.16
2022-11-05T06:56:23.693Z,1010.15
2022-11-05T06:57:23.627Z,1010.13
2022-11-05T06:58:23.583Z,1010.17
2022-11-05T06:59:23.497Z,1010.16
2022-11-05T07:00:23.450Z,1010.16
2022-11-05T07:01:23.482Z,1010.15
2022-11-05T07:02:23.354Z,1010.21
2022-11-05T07:03:23.251Z,1010.17
2022-11-05T07:04:23.203Z,1010.20
2022-11-05T07:05:23.095Z,1010.21
2022-11-05T07:06:23.074Z,1010.24
2022-11-05T07:07:22.983Z,1010.25
2022-11-05T07:08:22.912Z,1010.30
2022-11-05T07:09:22.867Z,1010.33
2022-11-05T07:10:22.774Z,1010.35
2022-11-05T07:11:22.725Z,1010.42
2022-11-05T07:12:22.655Z,1010.42
2022-11-05T07:13:22.581Z,1010.42
2022-11-05T07:14:22.504Z,1010.41
2022-11-05T07:15:22.455Z,1010.44
2022-11-05T07:16:22.368Z,1010.49
2022-11-05T07:17:22.303Z,1010.50
2022-11-05T07:18:22.259Z,1010.52
2022-11-05T07:19:22.167Z,1010.52
2022-11-05T07:20:22.102Z,1010.55
2022-11-05T07:21:22.046Z,1010.58
2022-11-05T07:22:21.988Z,1010.60
2022-11-05T07:23:21.938Z,1010.63
2022-11-05T07:24:21.844Z,1010.63
2022-11-05T07:25:21.784Z,1010.63
2022-11-05T07:26:21.720Z,1010.63
2022-11-05T07:27:21.651Z,1010.64
2022-11-05T07:28:21.604Z,1010.64
2022-11-05T07:29:21.514Z,1010.67
2022-11-05T07:30:21.472Z,1010.68
2022-11-05T07:31:21.381Z,1010.71
2022-11-05T07:32:21.311Z,1010.72
2022-11-05T07:33:21.278Z,1010.74
2022-11-05T07:34:21.185Z,1010.77
2022-11-05T07:35:21.107Z,1010.75
2022-11-05T07:36:21.058Z,1010.78
2022-11-05T07:37:20.990Z,1010.76
2022-11-05T07:38:20.914Z,1010.79
2022-11-05T07:39:20.864Z,1010.79
2022-11-05T07:40:20.792Z,1010.75
2022-11-05T07:41:20.726Z,1010.77
2022-11-05T07:42:20.646Z,1010.83
2022-11-05T07:43:20.580Z,1010.82
2022-11-05T07:44:20.551Z,1010.88
2022-11-05T07:45:20.457Z,1010.86
2022-11-05T07:46:20.401Z,1010.90
2022-11-05T07:47:20.339Z,1010.87
2022-11-05T07:48:20.252Z,1010.88
2022-11-05T07:49:20.192Z,1010.85
2022-11-05T07:50:20.152Z,1010.88
2022-11-05T07:51:20.058Z,1010.88
2022-11-05T07:52:20.005Z,1010.89
2022-11-05T07:53:19.951Z,1010.87
2022-11-05T07:54:19.906Z,1010.86
2022-11-05T07:55:19.804Z,1010.83
2022-11-05T07:56:19.780Z,1010.88
2022-11-05T07:57:19.679Z,1010.90
2022-11-05T07:58:19.613Z,1010.87
2022-11-05T07:59:19.552Z,1010.91
2022-11-05T08:00:19.496Z,1010.90
2022-11-05T08:01:19.696Z,1010.85
2022-11-05T08:02:19.582Z,1010.84
2022-11-05T08:03:20.300Z,1010.87
2022-11-05T08:04:19.232Z,1010.86
2022-11-05T08:05:19.153Z,1010.89
2022-11-05T08:06:19.113Z,1010.93
2022-11-05T08:07:19.020Z,1010.91
2022-11-05T08:08:18.961Z,1010.96
2022-11-05T08:09:18.886Z,1011.00
2022-11-05T08:10:18.821Z,1010.96
2022-11-05T08:11:18.782Z,1010.94
2022-11-05T08:12:18.738Z,1010.93
2022-11-05T08:13:18.638Z,1010.94
2022-11-05T08:14:18.607Z,1010.98
2022-11-05T08:15:18.503Z,1011.01
2022-11-05T08:16:18.441Z,1011.01
2022-11-05T08:17:18.658Z,1011.16
2022-11-05T08:18:18.304Z,1011.21
2022-11-05T08:19:18.249Z,1011.22
2022-11-05T08:20:18.172Z,1011.16
2022-11-05T08:21:18.158Z,1011.22
2022-11-05T08:22:18.049Z,1011.26
2022-11-05T08:23:18.001Z,1011.24
2022-11-05T08:24:17.935Z,1011.21
2022-11-05T08:25:17.858Z,1011.23
2022-11-05T08:26:17.797Z,1011.23
2022-11-05T08:27:17.743Z,1011.25
2022-11-05T08:28:17.676Z,1011.26
2022-11-05T08:29:17.606Z,1011.30
2022-11-05T08:30:17.557Z,1011.35
2022-11-05T08:31:17.482Z,1011.41
2022-11-05T08:32:17.449Z,1011.42
2022-11-05T08:33:17.417Z,1011.34
2022-11-05T08:34:17.309Z,1011.43
2022-11-05T08:35:17.220Z,1011.45
2022-11-05T08:36:17.152Z,1011.37
2022-11-05T08:37:17.114Z,1011.35
2022-11-05T08:38:17.044Z,1011.39
2022-11-05T08:39:17.253Z,1011.49
2022-11-05T08:40:16.901Z,1011.44
2022-11-05T08:41:16.862Z,1011.41
2022-11-05T08:42:16.791Z,1011.49
2022-11-05T08:43:16.720Z,1011.56
2022-11-05T08:44:16.668Z,1011.57
2022-11-05T08:45:16.598Z,1011.55
2022-11-05T08:46:16.559Z,1011.53
2022-11-05T08:47:16.477Z,1011.62
2022-11-05T08:48:16.409Z,1011.61
2022-11-05T08:49:16.415Z,1011.67
2022-11-05T08:50:16.306Z,1011.60
2022-11-05T08:51:16.226Z,1011.56
2022-11-05T08:52:16.177Z,1011.64
2022-11-05T08:53:16.304Z,1011.59
2022-11-05T08:54:16.061Z,1011.58
2022-11-05T08:55:15.993Z,1011.59
2022-11-05T08:56:15.919Z,1011.61
2022-11-05T08:57:15.889Z,1011.60
2022-11-05T08:58:15.817Z,1011.66
2022-11-05T08:59:15.739Z,1011.68
2022-11-05T09:00:15.742Z,1011.60
2022-11-05T09:01:15.670Z,1011.62
2022-11-05T09:02:15.682Z,1011.70
2022-11-05T09:03:15.818Z,1011.69
2022-11-05T09:04:15.456Z,1011.64
2022-11-05T09:05:15.388Z,1011.71
2022-11-05T09:06:15.324Z,1011.70
2022-11-05T09:07:15.275Z,1011.74
2022-11-05T09:08:15.221Z,1011.70
2022-11-05T09:09:15.141Z,1011.80
2022-11-05T09:10:15.140Z,1011.78
2022-11-05T09:11:15.044Z,1011.75
2022-11-05T09:12:14.973Z,1011.74
2022-11-05T09:13:19.541Z,1011.77
2022-11-05T09:14:14.867Z,1011.76
2022-11-05T09:15:14.835Z,1011.81
2022-11-05T09:16:14.851Z,1011.77
2022-11-05T09:17:14.684Z,1011.83
2022-11-05T09:18:14.626Z,1011.86
2022-11-05T09:19:14.561Z,1011.88
2022-11-05T09:20:14.580Z,1011.93
2022-11-05T09:21:14.451Z,1011.90
2022-11-05T09:22:14.416Z,1011.95
2022-11-05T09:23:14.501Z,1011.98
2022-11-05T09:24:14.284Z,1011.99
2022-11-05T09:25:14.228Z,1011.99
2022-11-05T09:26:14.155Z,1011.99
2022-11-05T09:27:14.094Z,1012.03
2022-11-05T09:28:16.772Z,1011.99
2022-11-05T09:29:14.673Z,1012.00
2022-11-05T09:30:13.993Z,1012.01
2022-11-05T09:31:13.860Z,1012.01
2022-11-05T09:32:13.808Z,1012.05
2022-11-05T09:33:14.071Z,1012.04
2022-11-05T09:34:13.697Z,1012.06
2022-11-05T09:35:13.628Z,1012.05
2022-11-05T09:36:13.568Z,1012.11
2022-11-05T09:37:13.520Z,1012.11
2022-11-05T09:38:13.456Z,1012.14
2022-11-05T09:39:13.396Z,1012.10
2022-11-05T09:40:13.345Z,1012.10
2022-11-05T09:41:13.284Z,1012.09
2022-11-05T09:42:13.241Z,1012.11
2022-11-05T09:43:13.397Z,1012.16
2022-11-05T09:44:13.122Z,1012.14
2022-11-05T09:45:13.068Z,1012.16
2022-11-05T09:46:13.020Z,1012.16
2022-11-05T09:47:12.938Z,1012.17
2022-11-05T09:48:12.895Z,1012.24
2022-11-05T09:49:12.823Z,1012.19
2022-11-05T09:50:12.862Z,1012.21
2022-11-05T09:51:12.714Z,1012.26
2022-11-05T09:52:12.667Z,1012.22
2022-11-05T09:53:12.904Z,1012.23
2022-11-05T09:54:12.553Z,1012.26
2022-11-05T09:55:12.609Z,1012.24
2022-11-05T09:56:12.468Z,1012.25
2022-11-05T09:57:12.477Z,1012.21
2022-11-05T09:58:12.329Z,1012.29
2022-11-05T09:59:12.253Z,1012.24
2022-11-05T10:00:12.258Z,1012.32
2022-11-05T10:01:12.207Z,1012.30
2022-11-05T10:02:12.174Z,1012.28
2022-11-05T10:03:12.562Z,1012.29
2022-11-05T10:04:11.975Z,1012.26
2022-11-05T10:05:11.960Z,1012.27
2022-11-05T10:06:11.891Z,1012.34
2022-11-05T10:07:11.811Z,1012.29
2022-11-05T10:08:11.746Z,1012.35
2022-11-05T10:09:11.692Z,1012.37
2022-11-05T10:10:11.635Z,1012.35
2022-11-05T10:11:11.670Z,1012.37
2022-11-05T10:12:11.549Z,1012.32
2022-11-05T10:13:11.733Z,1012.36
2022-11-05T10:14:11.445Z,1012.36
2022-11-05T10:15:11.364Z,1012.39
2022-11-05T10:16:11.292Z,1012.41
2022-11-05T10:17:11.258Z,1012.36
2022-11-05T10:18:11.181Z,1012.42
2022-11-05T10:19:11.195Z,1012.38
2022-11-05T10:20:11.134Z,1012.41
2022-11-05T10:21:11.059Z,1012.41
2022-11-05T10:22:10.984Z,1012.45
2022-11-05T10:23:11.281Z,1012.50
2022-11-05T10:24:10.859Z,1012.49
2022-11-05T10:25:10.804Z,1012.54
2022-11-05T10:26:10.840Z,1012.53
2022-11-05T10:27:10.670Z,1012.49
2022-11-05T10:28:10.669Z,1012.47
2022-11-05T10:29:10.564Z,1012.50
2022-11-05T10:30:10.620Z,1012.49
2022-11-05T10:31:10.441Z,1012.51
2022-11-05T10:32:10.389Z,1012.53
2022-11-05T10:33:10.579Z,1012.55
2022-11-05T10:34:10.303Z,1012.60
2022-11-05T10:35:10.235Z,1012.62
2022-11-05T10:36:10.170Z,1012.56
2022-11-05T10:37:10.110Z,1012.67
2022-11-05T10:38:10.054Z,1012.67
2022-11-05T10:39:09.988Z,1012.71
2022-11-05T10:40:10.040Z,1012.69
2022-11-05T10:41:09.875Z,1012.60
2022-11-05T10:42:09.830Z,1012.64
2022-11-05T10:43:10.168Z,1012.62
2022-11-05T10:44:11.514Z,1012.60
2022-11-05T10:45:09.663Z,1012.60
2022-11-05T10:46:09.610Z,1012.64
2022-11-05T10:47:09.646Z,1012.65
2022-11-05T10:48:09.589Z,1012.65
2022-11-05T10:49:09.483Z,1012.63
2022-11-05T10:50:09.440Z,1012.63
2022-11-05T10:51:09.329Z,1012.70
2022-11-05T10:52:09.257Z,1012.69
2022-11-05T10:53:09.519Z,1012.70
2022-11-05T10:54:09.142Z,1012.75
2022-11-05T10:55:09.102Z,1012.74
2022-11-05T10:56:09.041Z,1012.74
2022-11-05T10:57:08.986Z,1012.77
2022-11-05T10:58:08.953Z,1012.76
2022-11-05T10:59:12.160Z,1012.79
2022-11-05T11:00:08.863Z,1012.79
2022-11-05T11:01:08.820Z,1012.76
2022-11-05T11:02:08.818Z,1012.62
2022-11-05T11:03:08.887Z,1012.63
2022-11-05T11:04:08.616Z,1012.54
2022-11-05T11:05:08.554Z,1012.60
2022-11-05T11:06:08.506Z,1012.61
2022-11-05T11:07:08.427Z,1012.59
2022-11-05T11:08:08.374Z,1012.64
2022-11-05T11:09:08.337Z,1012.61
2022-11-05T11:10:08.346Z,1012.55
2022-11-05T11:11:08.202Z,1012.57
2022-11-05T11:12:08.149Z,1012.57
2022-11-05T11:13:08.253Z,1012.55
2022-11-05T11:14:08.024Z,1012.55
2022-11-05T11:15:08.076Z,1012.56
2022-11-05T11:16:07.900Z,1012.55
2022-11-05T11:17:07.860Z,1012.57
2022-11-05T11:18:07.778Z,1012.58
2022-11-05T11:19:07.743Z,1012.53
2022-11-05T11:20:07.667Z,1012.58
2022-11-05T11:21:07.612Z,1012.58
2022-11-05T11:22:07.579Z,1012.59
2022-11-05T11:23:07.501Z,1012.59
2022-11-05T11:24:07.424Z,1012.56
2022-11-05T11:25:07.376Z,1012.54
2022-11-05T11:26:07.320Z,1012.57
2022-11-05T11:27:07.240Z,1012.59
2022-11-05T11:28:07.185Z,1012.57
2022-11-05T11:29:07.136Z,1012.53
2022-11-05T11:30:07.068Z,1012.58
2022-11-05T11:31:07.084Z,1012.55
2022-11-05T11:32:06.982Z,1012.55
2022-11-05T11:33:06.881Z,1012.54
2022-11-05T11:34:06.817Z,1012.53
2022-11-05T11:35:06.768Z,1012.49
2022-11-05T11:36:06.695Z,1012.52
2022-11-05T11:37:06.647Z,1012.49
2022-11-05T11:38:06.594Z,1012.50
2022-11-05T11:39:06.511Z,1012.52
2022-11-05T11:40:06.457Z,1012.51
2022-11-05T11:41:06.394Z,1012.56
2022-11-05T11:42:06.384Z,1012.57
2022-11-05T11:43:06.269Z,1012.54
2022-11-05T11:44:06.249Z,1012.51
2022-11-05T11:45:06.144Z,1012.52
2022-11-05T11:46:09.922Z,1012.58
2022-11-05T11:47:06.042Z,1012.50
2022-11-05T11:48:05.969Z,1012.61
2022-11-05T11:49:05.948Z,1012.56
2022-11-05T11:50:05.854Z,1012.60
2022-11-05T11:51:05.772Z,1012.62
2022-11-05T11:52:05.714Z,1012.59
2022-11-05T11:53:05.680Z,1012.64
2022-11-05T11:54:05.591Z,1012.59
2022-11-05T11:55:05.524Z,1012.62
2022-11-05T11:56:05.471Z,1012.63
2022-11-05T11:57:05.405Z,1012.54
2022-11-05T11:58:05.354Z,1012.57
2022-11-05T11:59:05.290Z,1012.64
2022-11-05T12:00:09.624Z,1012.64
2022-11-05T12:01:05.224Z,1012.57
2022-11-05T12:02:05.181Z,1012.56
2022-11-05T12:03:05.133Z,1012.59
2022-11-05T12:04:04.995Z,1012.61
2022-11-05T12:05:04.905Z,1012.64